sensor_id;sensor_type;location;lat;lon;timestamp;P1;durP1;ratioP1;P2;durP2;ratioP2
31482;SDS011;18103;52.246;8.052;2023-04-20T00:00:41;3.37;;;1.83;;
31482;SDS011;18103;52.246;8.052;2023-04-20T00:03:07;5.40;;;2.07;;
31482;SDS011;18103;52.246;8.052;2023-04-20T00:05:38;3.53;;;1.97;;
31482;SDS011;18103;52.246;8.052;2023-04-20T00:08:04;6.70;;;1.77;;
31482;SDS011;18103;52.246;8.052;2023-04-20T00:10:30;3.20;;;1.50;;
31482;SDS011;18103;52.246;8.052;2023-04-20T00:12:55;5.53;;;1.83;;
31482;SDS011;18103;52.246;8.052;2023-04-20T00:15:23;5.37;;;1.50;;
31482;SDS011;18103;52.246;8.052;2023-04-20T00:17:50;4.83;;;2.23;;
31482;SDS011;18103;52.246;8.052;2023-04-20T00:20:16;7.77;;;2.03;;
31482;SDS011;18103;52.246;8.052;2023-04-20T00:22:42;3.47;;;2.10;;
31482;SDS011;18103;52.246;8.052;2023-04-20T00:25:07;4.43;;;1.80;;
31482;SDS011;18103;52.246;8.052;2023-04-20T00:27:33;3.07;;;1.97;;
31482;SDS011;18103;52.246;8.052;2023-04-20T00:29:59;4.33;;;1.90;;
31482;SDS011;18103;52.246;8.052;2023-04-20T00:32:26;3.00;;;1.83;;
31482;SDS011;18103;52.246;8.052;2023-04-20T00:34:54;9.57;;;2.03;;
31482;SDS011;18103;52.246;8.052;2023-04-20T00:37:19;2.30;;;1.27;;
31482;SDS011;18103;52.246;8.052;2023-04-20T00:39:49;2.97;;;1.53;;
31482;SDS011;18103;52.246;8.052;2023-04-20T00:42:15;4.50;;;2.03;;
31482;SDS011;18103;52.246;8.052;2023-04-20T00:44:40;2.87;;;1.70;;
31482;SDS011;18103;52.246;8.052;2023-04-20T00:47:06;4.50;;;2.53;;
31482;SDS011;18103;52.246;8.052;2023-04-20T00:49:33;4.80;;;2.17;;
31482;SDS011;18103;52.246;8.052;2023-04-20T00:52:01;2.77;;;1.83;;
31482;SDS011;18103;52.246;8.052;2023-04-20T00:54:27;1.47;;;1.17;;
31482;SDS011;18103;52.246;8.052;2023-04-20T00:56:54;7.37;;;2.87;;
31482;SDS011;18103;52.246;8.052;2023-04-20T00:59:23;5.47;;;2.27;;
31482;SDS011;18103;52.246;8.052;2023-04-20T01:01:51;3.67;;;1.90;;
31482;SDS011;18103;52.246;8.052;2023-04-20T01:04:16;1.97;;;1.63;;
31482;SDS011;18103;52.246;8.052;2023-04-20T01:06:42;3.60;;;1.63;;
31482;SDS011;18103;52.246;8.052;2023-04-20T01:09:10;4.80;;;2.30;;
31482;SDS011;18103;52.246;8.052;2023-04-20T01:11:36;3.23;;;1.47;;
31482;SDS011;18103;52.246;8.052;2023-04-20T01:14:02;3.60;;;1.70;;
31482;SDS011;18103;52.246;8.052;2023-04-20T01:16:32;5.00;;;1.77;;
31482;SDS011;18103;52.246;8.052;2023-04-20T01:19:00;4.50;;;1.93;;
31482;SDS011;18103;52.246;8.052;2023-04-20T01:21:26;6.00;;;2.00;;
31482;SDS011;18103;52.246;8.052;2023-04-20T01:23:52;5.27;;;2.43;;
31482;SDS011;18103;52.246;8.052;2023-04-20T01:26:17;4.07;;;2.60;;
31482;SDS011;18103;52.246;8.052;2023-04-20T01:28:44;3.47;;;1.90;;
31482;SDS011;18103;52.246;8.052;2023-04-20T01:31:10;3.27;;;1.93;;
31482;SDS011;18103;52.246;8.052;2023-04-20T01:33:39;1.50;;;1.33;;
31482;SDS011;18103;52.246;8.052;2023-04-20T01:36:06;2.80;;;1.67;;
31482;SDS011;18103;52.246;8.052;2023-04-20T01:38:35;4.53;;;2.10;;
31482;SDS011;18103;52.246;8.052;2023-04-20T01:41:03;1.90;;;1.60;;
31482;SDS011;18103;52.246;8.052;2023-04-20T01:43:31;3.63;;;1.77;;
31482;SDS011;18103;52.246;8.052;2023-04-20T01:45:58;6.20;;;1.97;;
31482;SDS011;18103;52.246;8.052;2023-04-20T01:48:24;6.63;;;2.30;;
31482;SDS011;18103;52.246;8.052;2023-04-20T01:50:53;3.67;;;2.10;;
31482;SDS011;18103;52.246;8.052;2023-04-20T01:53:18;10.27;;;2.30;;
31482;SDS011;18103;52.246;8.052;2023-04-20T01:55:46;5.10;;;1.77;;
31482;SDS011;18103;52.246;8.052;2023-04-20T01:58:11;5.67;;;1.60;;
31482;SDS011;18103;52.246;8.052;2023-04-20T02:00:37;2.07;;;1.57;;
31482;SDS011;18103;52.246;8.052;2023-04-20T02:03:02;5.07;;;2.07;;
31482;SDS011;18103;52.246;8.052;2023-04-20T02:05:27;3.63;;;2.17;;
31482;SDS011;18103;52.246;8.052;2023-04-20T02:07:53;3.00;;;1.83;;
31482;SDS011;18103;52.246;8.052;2023-04-20T02:10:21;4.13;;;1.80;;
31482;SDS011;18103;52.246;8.052;2023-04-20T02:12:47;6.50;;;2.23;;
31482;SDS011;18103;52.246;8.052;2023-04-20T02:15:14;2.50;;;1.73;;
31482;SDS011;18103;52.246;8.052;2023-04-20T02:17:39;5.37;;;2.17;;
31482;SDS011;18103;52.246;8.052;2023-04-20T02:20:06;2.63;;;2.10;;
31482;SDS011;18103;52.246;8.052;2023-04-20T02:22:35;5.63;;;1.90;;
31482;SDS011;18103;52.246;8.052;2023-04-20T02:25:03;4.83;;;1.77;;
31482;SDS011;18103;52.246;8.052;2023-04-20T02:27:30;6.70;;;2.17;;
31482;SDS011;18103;52.246;8.052;2023-04-20T02:29:56;2.93;;;2.27;;
31482;SDS011;18103;52.246;8.052;2023-04-20T02:32:21;8.17;;;2.37;;
31482;SDS011;18103;52.246;8.052;2023-04-20T02:34:47;4.10;;;2.00;;
31482;SDS011;18103;52.246;8.052;2023-04-20T02:37:14;5.90;;;2.60;;
31482;SDS011;18103;52.246;8.052;2023-04-20T02:39:40;6.83;;;2.27;;
31482;SDS011;18103;52.246;8.052;2023-04-20T02:42:07;2.73;;;2.10;;
31482;SDS011;18103;52.246;8.052;2023-04-20T02:44:33;4.87;;;1.97;;
31482;SDS011;18103;52.246;8.052;2023-04-20T02:47:00;6.80;;;2.07;;
31482;SDS011;18103;52.246;8.052;2023-04-20T02:49:26;4.07;;;2.17;;
31482;SDS011;18103;52.246;8.052;2023-04-20T02:51:54;7.13;;;2.30;;
31482;SDS011;18103;52.246;8.052;2023-04-20T02:54:19;5.53;;;1.83;;
31482;SDS011;18103;52.246;8.052;2023-04-20T02:56:47;3.77;;;2.07;;
31482;SDS011;18103;52.246;8.052;2023-04-20T02:59:12;5.23;;;2.20;;
31482;SDS011;18103;52.246;8.052;2023-04-20T03:01:38;4.93;;;2.13;;
31482;SDS011;18103;52.246;8.052;2023-04-20T03:04:03;6.43;;;1.93;;
31482;SDS011;18103;52.246;8.052;2023-04-20T03:06:29;5.80;;;2.57;;
31482;SDS011;18103;52.246;8.052;2023-04-20T03:08:54;3.10;;;2.33;;
31482;SDS011;18103;52.246;8.052;2023-04-20T03:11:20;5.17;;;2.30;;
31482;SDS011;18103;52.246;8.052;2023-04-20T03:13:48;3.93;;;2.23;;
31482;SDS011;18103;52.246;8.052;2023-04-20T03:16:13;2.60;;;2.03;;
31482;SDS011;18103;52.246;8.052;2023-04-20T03:18:38;3.43;;;2.43;;
31482;SDS011;18103;52.246;8.052;2023-04-20T03:21:04;3.83;;;2.10;;
31482;SDS011;18103;52.246;8.052;2023-04-20T03:23:32;8.73;;;3.03;;
31482;SDS011;18103;52.246;8.052;2023-04-20T03:25:57;3.77;;;2.43;;
31482;SDS011;18103;52.246;8.052;2023-04-20T03:28:22;7.97;;;2.33;;
31482;SDS011;18103;52.246;8.052;2023-04-20T03:30:48;8.23;;;2.90;;
31482;SDS011;18103;52.246;8.052;2023-04-20T03:33:13;5.23;;;2.63;;
31482;SDS011;18103;52.246;8.052;2023-04-20T03:35:41;4.47;;;2.20;;
31482;SDS011;18103;52.246;8.052;2023-04-20T03:38:07;8.13;;;2.87;;
31482;SDS011;18103;52.246;8.052;2023-04-20T03:40:34;3.80;;;2.43;;
31482;SDS011;18103;52.246;8.052;2023-04-20T03:43:00;8.07;;;2.37;;
31482;SDS011;18103;52.246;8.052;2023-04-20T03:45:30;5.83;;;2.47;;
31482;SDS011;18103;52.246;8.052;2023-04-20T03:47:55;2.30;;;1.60;;
31482;SDS011;18103;52.246;8.052;2023-04-20T03:50:21;5.30;;;2.37;;
31482;SDS011;18103;52.246;8.052;2023-04-20T03:52:46;6.40;;;2.33;;
31482;SDS011;18103;52.246;8.052;2023-04-20T03:55:11;3.90;;;2.23;;
31482;SDS011;18103;52.246;8.052;2023-04-20T03:57:40;5.93;;;2.40;;
31482;SDS011;18103;52.246;8.052;2023-04-20T04:00:05;4.20;;;2.70;;
31482;SDS011;18103;52.246;8.052;2023-04-20T04:02:35;2.80;;;2.20;;
31482;SDS011;18103;52.246;8.052;2023-04-20T04:05:01;8.10;;;2.63;;
31482;SDS011;18103;52.246;8.052;2023-04-20T04:07:31;4.10;;;2.43;;
31482;SDS011;18103;52.246;8.052;2023-04-20T04:09:59;6.07;;;2.50;;
31482;SDS011;18103;52.246;8.052;2023-04-20T04:12:25;5.50;;;2.27;;
31482;SDS011;18103;52.246;8.052;2023-04-20T04:14:50;7.17;;;2.83;;
31482;SDS011;18103;52.246;8.052;2023-04-20T04:17:15;4.77;;;2.47;;
31482;SDS011;18103;52.246;8.052;2023-04-20T04:19:41;7.73;;;2.47;;
31482;SDS011;18103;52.246;8.052;2023-04-20T04:22:07;3.07;;;2.03;;
31482;SDS011;18103;52.246;8.052;2023-04-20T04:24:35;7.83;;;2.77;;
31482;SDS011;18103;52.246;8.052;2023-04-20T04:27:05;9.17;;;2.70;;
31482;SDS011;18103;52.246;8.052;2023-04-20T04:29:31;6.33;;;2.50;;
31482;SDS011;18103;52.246;8.052;2023-04-20T04:31:59;5.30;;;2.20;;
31482;SDS011;18103;52.246;8.052;2023-04-20T04:34:28;4.63;;;2.80;;
31482;SDS011;18103;52.246;8.052;2023-04-20T04:36:59;6.93;;;2.70;;
31482;SDS011;18103;52.246;8.052;2023-04-20T04:39:26;10.10;;;2.30;;
31482;SDS011;18103;52.246;8.052;2023-04-20T04:41:54;8.13;;;2.33;;
31482;SDS011;18103;52.246;8.052;2023-04-20T04:44:19;8.97;;;2.33;;
31482;SDS011;18103;52.246;8.052;2023-04-20T04:46:49;6.33;;;2.43;;
31482;SDS011;18103;52.246;8.052;2023-04-20T04:49:21;4.53;;;2.10;;
31482;SDS011;18103;52.246;8.052;2023-04-20T04:51:48;5.33;;;2.30;;
31482;SDS011;18103;52.246;8.052;2023-04-20T04:54:15;7.50;;;3.67;;
31482;SDS011;18103;52.246;8.052;2023-04-20T04:56:41;5.57;;;2.40;;
31482;SDS011;18103;52.246;8.052;2023-04-20T04:59:06;8.20;;;2.33;;
31482;SDS011;18103;52.246;8.052;2023-04-20T05:01:31;6.07;;;2.67;;
31482;SDS011;18103;52.246;8.052;2023-04-20T05:03:59;7.67;;;2.93;;
31482;SDS011;18103;52.246;8.052;2023-04-20T05:06:25;5.70;;;2.60;;
31482;SDS011;18103;52.246;8.052;2023-04-20T05:08:50;6.53;;;3.10;;
31482;SDS011;18103;52.246;8.052;2023-04-20T05:11:18;7.93;;;2.57;;
31482;SDS011;18103;52.246;8.052;2023-04-20T05:13:45;8.87;;;2.50;;
31482;SDS011;18103;52.246;8.052;2023-04-20T05:16:12;5.80;;;2.47;;
31482;SDS011;18103;52.246;8.052;2023-04-20T05:18:37;4.63;;;2.23;;
31482;SDS011;18103;52.246;8.052;2023-04-20T05:21:05;5.63;;;3.10;;
31482;SDS011;18103;52.246;8.052;2023-04-20T05:23:33;10.93;;;2.90;;
31482;SDS011;18103;52.246;8.052;2023-04-20T05:25:58;6.97;;;2.47;;
31482;SDS011;18103;52.246;8.052;2023-04-20T05:28:24;8.23;;;2.90;;
31482;SDS011;18103;52.246;8.052;2023-04-20T05:30:51;4.77;;;2.30;;
31482;SDS011;18103;52.246;8.052;2023-04-20T05:33:23;8.70;;;2.87;;
31482;SDS011;18103;52.246;8.052;2023-04-20T05:35:48;4.87;;;2.30;;
31482;SDS011;18103;52.246;8.052;2023-04-20T05:38:15;6.20;;;3.03;;
31482;SDS011;18103;52.246;8.052;2023-04-20T05:40:40;4.47;;;2.40;;
31482;SDS011;18103;52.246;8.052;2023-04-20T05:43:06;5.47;;;2.53;;
31482;SDS011;18103;52.246;8.052;2023-04-20T05:45:33;8.57;;;2.90;;
31482;SDS011;18103;52.246;8.052;2023-04-20T05:47:59;5.23;;;2.50;;
31482;SDS011;18103;52.246;8.052;2023-04-20T05:50:25;5.33;;;2.90;;
31482;SDS011;18103;52.246;8.052;2023-04-20T05:52:51;5.13;;;3.17;;
31482;SDS011;18103;52.246;8.052;2023-04-20T05:55:17;6.37;;;2.93;;
31482;SDS011;18103;52.246;8.052;2023-04-20T05:57:43;9.03;;;2.97;;
31482;SDS011;18103;52.246;8.052;2023-04-20T06:00:11;5.60;;;2.20;;
31482;SDS011;18103;52.246;8.052;2023-04-20T06:02:39;4.37;;;3.03;;
31482;SDS011;18103;52.246;8.052;2023-04-20T06:05:05;4.47;;;2.77;;
31482;SDS011;18103;52.246;8.052;2023-04-20T06:07:31;4.37;;;2.83;;
31482;SDS011;18103;52.246;8.052;2023-04-20T06:09:56;6.20;;;3.03;;
31482;SDS011;18103;52.246;8.052;2023-04-20T06:12:24;7.70;;;3.07;;
31482;SDS011;18103;52.246;8.052;2023-04-20T06:14:50;7.30;;;2.90;;
31482;SDS011;18103;52.246;8.052;2023-04-20T06:17:18;5.17;;;2.93;;
31482;SDS011;18103;52.246;8.052;2023-04-20T06:19:46;5.67;;;2.53;;
31482;SDS011;18103;52.246;8.052;2023-04-20T06:22:11;6.80;;;3.20;;
31482;SDS011;18103;52.246;8.052;2023-04-20T06:24:37;6.07;;;3.00;;
31482;SDS011;18103;52.246;8.052;2023-04-20T06:27:06;5.47;;;2.53;;
31482;SDS011;18103;52.246;8.052;2023-04-20T06:29:36;7.83;;;3.20;;
31482;SDS011;18103;52.246;8.052;2023-04-20T06:32:02;5.00;;;2.13;;
31482;SDS011;18103;52.246;8.052;2023-04-20T06:34:28;5.73;;;3.27;;
31482;SDS011;18103;52.246;8.052;2023-04-20T06:36:53;7.13;;;3.20;;
31482;SDS011;18103;52.246;8.052;2023-04-20T06:39:19;7.00;;;2.47;;
31482;SDS011;18103;52.246;8.052;2023-04-20T06:41:44;4.13;;;2.50;;
31482;SDS011;18103;52.246;8.052;2023-04-20T06:44:12;4.27;;;2.17;;
31482;SDS011;18103;52.246;8.052;2023-04-20T06:46:40;4.00;;;2.97;;
31482;SDS011;18103;52.246;8.052;2023-04-20T06:49:05;5.40;;;2.67;;
31482;SDS011;18103;52.246;8.052;2023-04-20T06:51:31;6.93;;;3.27;;
31482;SDS011;18103;52.246;8.052;2023-04-20T06:53:58;7.60;;;2.67;;
31482;SDS011;18103;52.246;8.052;2023-04-20T06:56:24;8.00;;;3.20;;
31482;SDS011;18103;52.246;8.052;2023-04-20T06:58:49;6.87;;;3.07;;
31482;SDS011;18103;52.246;8.052;2023-04-20T07:01:15;4.97;;;3.17;;
31482;SDS011;18103;52.246;8.052;2023-04-20T07:03:45;5.10;;;2.80;;
31482;SDS011;18103;52.246;8.052;2023-04-20T07:06:10;6.17;;;2.90;;
31482;SDS011;18103;52.246;8.052;2023-04-20T07:08:42;5.30;;;2.67;;
31482;SDS011;18103;52.246;8.052;2023-04-20T07:11:07;3.97;;;2.47;;
31482;SDS011;18103;52.246;8.052;2023-04-20T07:13:33;4.50;;;2.50;;
31482;SDS011;18103;52.246;8.052;2023-04-20T07:16:00;4.10;;;2.40;;
31482;SDS011;18103;52.246;8.052;2023-04-20T07:18:26;7.23;;;3.70;;
31482;SDS011;18103;52.246;8.052;2023-04-20T07:20:52;7.37;;;2.67;;
31482;SDS011;18103;52.246;8.052;2023-04-20T07:23:17;4.40;;;3.23;;
31482;SDS011;18103;52.246;8.052;2023-04-20T07:25:43;6.73;;;2.70;;
31482;SDS011;18103;52.246;8.052;2023-04-20T07:28:08;4.57;;;2.50;;
31482;SDS011;18103;52.246;8.052;2023-04-20T07:30:33;4.37;;;2.50;;
31482;SDS011;18103;52.246;8.052;2023-04-20T07:32:59;5.00;;;3.23;;
31482;SDS011;18103;52.246;8.052;2023-04-20T07:35:27;3.90;;;2.67;;
31482;SDS011;18103;52.246;8.052;2023-04-20T07:37:53;3.47;;;2.90;;
31482;SDS011;18103;52.246;8.052;2023-04-20T07:40:18;7.23;;;3.13;;
31482;SDS011;18103;52.246;8.052;2023-04-20T07:42:46;9.67;;;3.87;;
31482;SDS011;18103;52.246;8.052;2023-04-20T07:45:13;12.97;;;3.70;;
31482;SDS011;18103;52.246;8.052;2023-04-20T07:47:39;5.73;;;3.03;;
31482;SDS011;18103;52.246;8.052;2023-04-20T07:50:05;6.93;;;2.90;;
31482;SDS011;18103;52.246;8.052;2023-04-20T07:52:31;8.53;;;3.07;;
31482;SDS011;18103;52.246;8.052;2023-04-20T07:54:57;6.53;;;3.10;;
31482;SDS011;18103;52.246;8.052;2023-04-20T07:57:24;4.50;;;2.93;;
31482;SDS011;18103;52.246;8.052;2023-04-20T07:59:50;7.40;;;3.30;;
31482;SDS011;18103;52.246;8.052;2023-04-20T08:02:18;7.27;;;2.90;;
31482;SDS011;18103;52.246;8.052;2023-04-20T08:04:44;5.53;;;2.83;;
31482;SDS011;18103;52.246;8.052;2023-04-20T08:07:12;5.20;;;3.30;;
31482;SDS011;18103;52.246;8.052;2023-04-20T08:09:40;6.50;;;3.63;;
31482;SDS011;18103;52.246;8.052;2023-04-20T08:12:06;7.53;;;3.47;;
31482;SDS011;18103;52.246;8.052;2023-04-20T08:14:34;6.43;;;3.07;;
31482;SDS011;18103;52.246;8.052;2023-04-20T08:17:02;6.30;;;3.37;;
31482;SDS011;18103;52.246;8.052;2023-04-20T08:19:29;8.20;;;3.60;;
31482;SDS011;18103;52.246;8.052;2023-04-20T08:21:55;7.90;;;3.67;;
31482;SDS011;18103;52.246;8.052;2023-04-20T08:24:22;7.20;;;3.17;;
31482;SDS011;18103;52.246;8.052;2023-04-20T08:26:50;5.53;;;3.47;;
31482;SDS011;18103;52.246;8.052;2023-04-20T08:29:16;5.53;;;3.17;;
31482;SDS011;18103;52.246;8.052;2023-04-20T08:31:43;5.73;;;2.90;;
31482;SDS011;18103;52.246;8.052;2023-04-20T08:34:10;6.10;;;3.50;;
31482;SDS011;18103;52.246;8.052;2023-04-20T08:36:36;6.53;;;3.30;;
31482;SDS011;18103;52.246;8.052;2023-04-20T08:39:05;5.77;;;2.97;;
31482;SDS011;18103;52.246;8.052;2023-04-20T08:41:35;6.30;;;3.20;;
31482;SDS011;18103;52.246;8.052;2023-04-20T08:44:03;7.87;;;4.00;;
31482;SDS011;18103;52.246;8.052;2023-04-20T08:46:31;8.07;;;3.47;;
31482;SDS011;18103;52.246;8.052;2023-04-20T08:48:57;5.77;;;3.50;;
31482;SDS011;18103;52.246;8.052;2023-04-20T08:51:27;7.23;;;2.93;;
31482;SDS011;18103;52.246;8.052;2023-04-20T08:53:54;7.67;;;3.70;;
31482;SDS011;18103;52.246;8.052;2023-04-20T08:56:30;9.40;;;4.00;;
31482;SDS011;18103;52.246;8.052;2023-04-20T08:59:00;7.97;;;3.73;;
31482;SDS011;18103;52.246;8.052;2023-04-20T09:01:28;7.17;;;3.60;;
31482;SDS011;18103;52.246;8.052;2023-04-20T09:03:53;5.57;;;2.90;;
31482;SDS011;18103;52.246;8.052;2023-04-20T09:06:19;11.87;;;3.20;;
31482;SDS011;18103;52.246;8.052;2023-04-20T09:08:45;9.57;;;3.60;;
31482;SDS011;18103;52.246;8.052;2023-04-20T09:11:20;10.97;;;3.63;;
31482;SDS011;18103;52.246;8.052;2023-04-20T09:16:51;6.20;;;3.40;;
31482;SDS011;18103;52.246;8.052;2023-04-20T09:19:21;7.87;;;3.70;;
31482;SDS011;18103;52.246;8.052;2023-04-20T09:21:50;6.70;;;3.30;;
31482;SDS011;18103;52.246;8.052;2023-04-20T09:24:18;5.30;;;3.43;;
31482;SDS011;18103;52.246;8.052;2023-04-20T09:26:50;4.80;;;3.00;;
31482;SDS011;18103;52.246;8.052;2023-04-20T09:29:19;4.83;;;2.90;;
31482;SDS011;18103;52.246;8.052;2023-04-20T09:31:46;5.93;;;3.13;;
31482;SDS011;18103;52.246;8.052;2023-04-20T09:34:12;9.67;;;3.27;;
31482;SDS011;18103;52.246;8.052;2023-04-20T09:36:41;10.00;;;3.30;;
31482;SDS011;18103;52.246;8.052;2023-04-20T09:39:16;4.53;;;2.93;;
31482;SDS011;18103;52.246;8.052;2023-04-20T09:41:43;8.97;;;3.13;;
31482;SDS011;18103;52.246;8.052;2023-04-20T09:44:14;12.67;;;3.07;;
31482;SDS011;18103;52.246;8.052;2023-04-20T09:46:42;4.60;;;2.87;;
31482;SDS011;18103;52.246;8.052;2023-04-20T09:49:13;7.63;;;3.87;;
31482;SDS011;18103;52.246;8.052;2023-04-20T09:51:40;4.23;;;2.90;;
31482;SDS011;18103;52.246;8.052;2023-04-20T09:54:11;5.13;;;3.10;;
31482;SDS011;18103;52.246;8.052;2023-04-20T09:56:38;6.63;;;3.63;;
31482;SDS011;18103;52.246;8.052;2023-04-20T09:59:04;5.00;;;2.47;;
31482;SDS011;18103;52.246;8.052;2023-04-20T10:01:30;5.90;;;3.00;;
31482;SDS011;18103;52.246;8.052;2023-04-20T10:03:59;5.13;;;2.67;;
31482;SDS011;18103;52.246;8.052;2023-04-20T10:06:26;10.13;;;3.43;;
31482;SDS011;18103;52.246;8.052;2023-04-20T10:08:56;5.33;;;3.40;;
31482;SDS011;18103;52.246;8.052;2023-04-20T10:11:29;6.07;;;3.40;;
31482;SDS011;18103;52.246;8.052;2023-04-20T10:13:55;5.63;;;2.83;;
31482;SDS011;18103;52.246;8.052;2023-04-20T10:16:22;3.90;;;2.60;;
31482;SDS011;18103;52.246;8.052;2023-04-20T10:18:54;5.63;;;3.90;;
31482;SDS011;18103;52.246;8.052;2023-04-20T10:21:28;7.33;;;3.33;;
31482;SDS011;18103;52.246;8.052;2023-04-20T10:23:54;5.83;;;3.73;;
31482;SDS011;18103;52.246;8.052;2023-04-20T10:26:21;5.70;;;3.57;;
31482;SDS011;18103;52.246;8.052;2023-04-20T10:28:50;5.37;;;3.43;;
31482;SDS011;18103;52.246;8.052;2023-04-20T10:31:15;5.83;;;3.20;;
31482;SDS011;18103;52.246;8.052;2023-04-20T10:33:53;6.80;;;3.97;;
31482;SDS011;18103;52.246;8.052;2023-04-20T10:36:29;10.83;;;3.77;;
31482;SDS011;18103;52.246;8.052;2023-04-20T10:38:56;5.47;;;2.80;;
31482;SDS011;18103;52.246;8.052;2023-04-20T10:41:23;7.03;;;4.03;;
31482;SDS011;18103;52.246;8.052;2023-04-20T10:43:48;6.90;;;3.43;;
31482;SDS011;18103;52.246;8.052;2023-04-20T10:46:18;6.97;;;3.60;;
31482;SDS011;18103;52.246;8.052;2023-04-20T10:49:03;8.83;;;4.33;;
31482;SDS011;18103;52.246;8.052;2023-04-20T10:51:28;4.70;;;3.27;;
31482;SDS011;18103;52.246;8.052;2023-04-20T10:53:58;7.17;;;3.87;;
31482;SDS011;18103;52.246;8.052;2023-04-20T10:56:35;7.87;;;3.37;;
31482;SDS011;18103;52.246;8.052;2023-04-20T10:59:21;9.03;;;3.93;;
31482;SDS011;18103;52.246;8.052;2023-04-20T11:01:50;10.53;;;4.07;;
31482;SDS011;18103;52.246;8.052;2023-04-20T11:04:16;5.53;;;3.00;;
31482;SDS011;18103;52.246;8.052;2023-04-20T11:06:43;5.57;;;3.63;;
31482;SDS011;18103;52.246;8.052;2023-04-20T11:09:20;6.77;;;4.13;;
31482;SDS011;18103;52.246;8.052;2023-04-20T11:11:56;6.77;;;3.77;;
31482;SDS011;18103;52.246;8.052;2023-04-20T11:14:26;6.53;;;4.03;;
31482;SDS011;18103;52.246;8.052;2023-04-20T11:16:54;6.00;;;3.80;;
31482;SDS011;18103;52.246;8.052;2023-04-20T11:19:53;4.57;;;3.43;;
31482;SDS011;18103;52.246;8.052;2023-04-20T11:22:22;4.80;;;3.27;;
31482;SDS011;18103;52.246;8.052;2023-04-20T11:24:47;5.10;;;3.50;;
31482;SDS011;18103;52.246;8.052;2023-04-20T11:27:19;10.57;;;3.73;;
31482;SDS011;18103;52.246;8.052;2023-04-20T11:29:54;5.87;;;3.70;;
31482;SDS011;18103;52.246;8.052;2023-04-20T11:32:24;6.93;;;3.87;;
31482;SDS011;18103;52.246;8.052;2023-04-20T11:34:57;5.43;;;3.10;;
31482;SDS011;18103;52.246;8.052;2023-04-20T11:37:32;5.33;;;3.77;;
31482;SDS011;18103;52.246;8.052;2023-04-20T11:42:33;3.30;;;2.50;;
31482;SDS011;18103;52.246;8.052;2023-04-20T11:45:01;6.60;;;3.63;;
31482;SDS011;18103;52.246;8.052;2023-04-20T11:47:27;5.60;;;3.53;;
31482;SDS011;18103;52.246;8.052;2023-04-20T11:49:55;5.37;;;3.33;;
31482;SDS011;18103;52.246;8.052;2023-04-20T11:52:22;6.23;;;3.77;;
31482;SDS011;18103;52.246;8.052;2023-04-20T11:54:51;5.43;;;4.17;;
31482;SDS011;18103;52.246;8.052;2023-04-20T11:57:16;5.37;;;4.27;;
31482;SDS011;18103;52.246;8.052;2023-04-20T11:59:42;4.70;;;3.30;;
31482;SDS011;18103;52.246;8.052;2023-04-20T12:02:15;5.00;;;3.70;;
31482;SDS011;18103;52.246;8.052;2023-04-20T12:04:40;5.53;;;3.90;;
31482;SDS011;18103;52.246;8.052;2023-04-20T12:07:06;4.63;;;3.73;;
31482;SDS011;18103;52.246;8.052;2023-04-20T12:09:31;5.60;;;4.00;;
31482;SDS011;18103;52.246;8.052;2023-04-20T12:12:02;6.07;;;4.00;;
31482;SDS011;18103;52.246;8.052;2023-04-20T12:14:34;9.13;;;4.07;;
31482;SDS011;18103;52.246;8.052;2023-04-20T12:17:02;5.43;;;3.53;;
31482;SDS011;18103;52.246;8.052;2023-04-20T12:19:31;7.17;;;3.60;;
31482;SDS011;18103;52.246;8.052;2023-04-20T12:21:56;8.40;;;4.53;;
31482;SDS011;18103;52.246;8.052;2023-04-20T12:24:24;7.23;;;4.10;;
31482;SDS011;18103;52.246;8.052;2023-04-20T12:26:50;4.90;;;3.77;;
31482;SDS011;18103;52.246;8.052;2023-04-20T12:29:15;8.00;;;4.07;;
31482;SDS011;18103;52.246;8.052;2023-04-20T12:31:40;5.30;;;3.80;;
31482;SDS011;18103;52.246;8.052;2023-04-20T12:34:09;8.63;;;4.10;;
31482;SDS011;18103;52.246;8.052;2023-04-20T12:36:34;5.43;;;3.57;;
31482;SDS011;18103;52.246;8.052;2023-04-20T12:39:00;5.03;;;3.70;;
31482;SDS011;18103;52.246;8.052;2023-04-20T12:41:28;7.20;;;3.63;;
31482;SDS011;18103;52.246;8.052;2023-04-20T12:43:56;4.90;;;3.53;;
31482;SDS011;18103;52.246;8.052;2023-04-20T12:46:21;6.27;;;4.03;;
31482;SDS011;18103;52.246;8.052;2023-04-20T12:48:46;7.07;;;4.07;;
31482;SDS011;18103;52.246;8.052;2023-04-20T12:51:12;6.73;;;4.63;;
31482;SDS011;18103;52.246;8.052;2023-04-20T12:53:38;8.57;;;4.63;;
31482;SDS011;18103;52.246;8.052;2023-04-20T12:56:04;6.40;;;4.13;;
31482;SDS011;18103;52.246;8.052;2023-04-20T12:58:32;8.80;;;4.47;;
31482;SDS011;18103;52.246;8.052;2023-04-20T13:00:57;5.47;;;3.87;;
31482;SDS011;18103;52.246;8.052;2023-04-20T13:03:23;6.07;;;4.03;;
31482;SDS011;18103;52.246;8.052;2023-04-20T13:05:48;6.43;;;4.60;;
31482;SDS011;18103;52.246;8.052;2023-04-20T13:08:13;9.30;;;4.13;;
31482;SDS011;18103;52.246;8.052;2023-04-20T13:10:39;4.97;;;3.87;;
31482;SDS011;18103;52.246;8.052;2023-04-20T13:13:07;6.37;;;4.07;;
31482;SDS011;18103;52.246;8.052;2023-04-20T13:15:34;6.27;;;4.17;;
31482;SDS011;18103;52.246;8.052;2023-04-20T13:17:59;5.10;;;4.03;;
31482;SDS011;18103;52.246;8.052;2023-04-20T13:20:27;7.10;;;4.63;;
31482;SDS011;18103;52.246;8.052;2023-04-20T13:22:55;5.67;;;3.60;;
31482;SDS011;18103;52.246;8.052;2023-04-20T13:25:24;10.13;;;4.63;;
31482;SDS011;18103;52.246;8.052;2023-04-20T13:27:52;6.27;;;4.20;;
31482;SDS011;18103;52.246;8.052;2023-04-20T13:30:20;6.03;;;4.70;;
31482;SDS011;18103;52.246;8.052;2023-04-20T13:32:47;6.97;;;4.60;;
31482;SDS011;18103;52.246;8.052;2023-04-20T13:35:12;7.23;;;5.00;;
31482;SDS011;18103;52.246;8.052;2023-04-20T13:37:39;8.50;;;4.57;;
31482;SDS011;18103;52.246;8.052;2023-04-20T13:40:07;5.73;;;4.07;;
31482;SDS011;18103;52.246;8.052;2023-04-20T13:42:36;6.47;;;4.87;;
31482;SDS011;18103;52.246;8.052;2023-04-20T13:45:04;8.37;;;3.93;;
31482;SDS011;18103;52.246;8.052;2023-04-20T13:47:32;5.97;;;4.07;;
31482;SDS011;18103;52.246;8.052;2023-04-20T13:50:00;6.13;;;4.40;;
31482;SDS011;18103;52.246;8.052;2023-04-20T13:52:27;4.57;;;3.63;;
31482;SDS011;18103;52.246;8.052;2023-04-20T13:54:55;4.77;;;3.40;;
31482;SDS011;18103;52.246;8.052;2023-04-20T13:57:23;6.10;;;4.27;;
31482;SDS011;18103;52.246;8.052;2023-04-20T13:59:50;5.83;;;4.37;;
31482;SDS011;18103;52.246;8.052;2023-04-20T14:02:19;6.90;;;4.20;;
31482;SDS011;18103;52.246;8.052;2023-04-20T14:04:44;5.60;;;3.90;;
31482;SDS011;18103;52.246;8.052;2023-04-20T14:07:09;5.13;;;2.90;;
31482;SDS011;18103;52.246;8.052;2023-04-20T14:09:35;6.17;;;4.10;;
31482;SDS011;18103;52.246;8.052;2023-04-20T14:12:00;5.13;;;3.37;;
31482;SDS011;18103;52.246;8.052;2023-04-20T14:14:28;5.20;;;3.07;;
31482;SDS011;18103;52.246;8.052;2023-04-20T14:16:53;8.03;;;3.20;;
31482;SDS011;18103;52.246;8.052;2023-04-20T14:19:19;4.03;;;3.00;;
31482;SDS011;18103;52.246;8.052;2023-04-20T14:21:44;4.53;;;3.00;;
31482;SDS011;18103;52.246;8.052;2023-04-20T14:24:12;5.17;;;3.17;;
31482;SDS011;18103;52.246;8.052;2023-04-20T14:26:38;3.83;;;3.03;;
31482;SDS011;18103;52.246;8.052;2023-04-20T14:29:07;5.13;;;3.40;;
31482;SDS011;18103;52.246;8.052;2023-04-20T14:31:35;3.90;;;3.37;;
31482;SDS011;18103;52.246;8.052;2023-04-20T14:34:01;6.30;;;2.70;;
31482;SDS011;18103;52.246;8.052;2023-04-20T14:36:26;4.63;;;3.43;;
31482;SDS011;18103;52.246;8.052;2023-04-20T14:38:54;5.57;;;3.90;;
31482;SDS011;18103;52.246;8.052;2023-04-20T14:41:20;4.50;;;3.20;;
31482;SDS011;18103;52.246;8.052;2023-04-20T14:43:46;9.00;;;2.90;;
31482;SDS011;18103;52.246;8.052;2023-04-20T14:46:11;5.50;;;3.27;;
31482;SDS011;18103;52.246;8.052;2023-04-20T14:48:37;4.40;;;3.47;;
31482;SDS011;18103;52.246;8.052;2023-04-20T14:51:05;11.17;;;3.63;;
31482;SDS011;18103;52.246;8.052;2023-04-20T14:53:32;4.70;;;3.23;;